createdAt,value
2018-12-20T00:00:11.634Z,7.88
2018-12-20T00:01:11.554Z,7.78
2018-12-20T00:02:11.579Z,7.77
2018-12-20T00:03:11.629Z,7.88
2018-12-20T00:04:11.631Z,7.96
2018-12-20T00:05:11.864Z,7.93
2018-12-20T00:06:11.679Z,7.99
2018-12-20T00:07:11.696Z,7.91
2018-12-20T00:08:11.722Z,7.98
2018-12-20T00:09:11.786Z,7.92
2018-12-20T00:10:11.793Z,7.99
2018-12-20T00:11:11.919Z,7.95
2018-12-20T00:12:11.838Z,7.99
2018-12-20T00:13:11.949Z,7.98
2018-12-20T00:14:11.979Z,7.95
2018-12-20T00:15:12.062Z,7.95
2018-12-20T00:16:11.938Z,7.93
2018-12-20T00:17:12.052Z,7.92
2018-12-20T00:18:11.998Z,7.98
2018-12-20T00:19:11.986Z,7.96
2018-12-20T00:20:12.112Z,8.01
2018-12-20T00:21:12.137Z,7.99
2018-12-20T00:22:12.055Z,7.93
2018-12-20T00:23:12.081Z,7.93
2018-12-20T00:24:12.119Z,7.95
2018-12-20T00:25:12.212Z,7.96
2018-12-20T00:26:12.266Z,7.96
2018-12-20T00:27:12.292Z,7.98
2018-12-20T00:28:12.308Z,7.95
2018-12-20T00:29:12.354Z,7.92
2018-12-20T00:30:12.421Z,7.98
2018-12-20T00:31:13.702Z,7.93
2018-12-20T00:32:12.292Z,7.93
2018-12-20T00:33:12.491Z,7.80
2018-12-20T00:34:12.402Z,7.88
2018-12-20T00:35:12.547Z,7.83
2018-12-20T00:36:12.556Z,7.82
2018-12-20T00:37:12.410Z,7.83
2018-12-20T00:38:12.546Z,7.82
2018-12-20T00:39:12.461Z,7.82
2018-12-20T00:40:12.536Z,7.74
2018-12-20T00:41:12.524Z,7.80
2018-12-20T00:42:12.563Z,7.77
2018-12-20T00:43:12.555Z,7.82
2018-12-20T00:44:12.651Z,7.75
2018-12-20T00:45:12.815Z,7.71
2018-12-20T00:46:12.655Z,7.64
2018-12-20T00:47:12.653Z,7.70
2018-12-20T00:48:12.754Z,7.68
2018-12-20T00:49:12.777Z,7.63
2018-12-20T00:50:12.770Z,7.67
2018-12-20T00:51:12.849Z,7.68
2018-12-20T00:52:12.821Z,7.56
2018-12-20T00:53:12.788Z,7.64
2018-12-20T00:54:12.815Z,7.64
2018-12-20T00:55:12.839Z,7.67
2018-12-20T00:56:12.859Z,7.68
2018-12-20T00:57:12.902Z,7.63
2018-12-20T00:58:12.915Z,7.59
2018-12-20T00:59:13.020Z,7.59
2018-12-20T01:00:12.955Z,7.54
2018-12-20T01:01:12.996Z,7.64
2018-12-20T01:02:13.104Z,7.58
2018-12-20T01:03:13.160Z,7.52
2018-12-20T01:04:13.056Z,7.58
2018-12-20T01:05:13.208Z,7.56
2018-12-20T01:06:13.255Z,7.56
2018-12-20T01:07:13.471Z,7.49
2018-12-20T01:08:13.347Z,7.52
2018-12-20T01:09:13.382Z,7.56
2018-12-20T01:10:13.340Z,7.49
2018-12-20T01:11:13.394Z,7.52
2018-12-20T01:12:13.344Z,7.52
2018-12-20T01:13:13.365Z,7.49
2018-12-20T01:14:13.368Z,7.54
2018-12-20T01:15:13.311Z,7.47
2018-12-20T01:16:13.477Z,7.56
2018-12-20T01:17:13.521Z,7.49
2018-12-20T01:18:13.460Z,7.48
2018-12-20T01:19:13.402Z,7.47
2018-12-20T01:20:13.430Z,7.59
2018-12-20T01:21:13.448Z,7.47
2018-12-20T01:22:13.657Z,7.49
2018-12-20T01:23:13.637Z,7.48
2018-12-20T01:24:13.532Z,7.37
2018-12-20T01:25:13.616Z,7.52
2018-12-20T01:26:13.645Z,7.39
2018-12-20T01:27:13.602Z,7.49
2018-12-20T01:28:13.612Z,7.48
2018-12-20T01:29:13.656Z,7.48
2018-12-20T01:30:13.660Z,7.39
2018-12-20T01:31:13.686Z,7.41
2018-12-20T01:32:13.709Z,7.37
2018-12-20T01:33:20.000Z,7.47
2018-12-20T01:34:13.834Z,7.44
2018-12-20T01:35:13.793Z,7.47
2018-12-20T01:36:13.803Z,7.37
2018-12-20T01:37:13.824Z,7.52
2018-12-20T01:38:13.867Z,7.45
2018-12-20T01:39:13.972Z,7.47
2018-12-20T01:40:13.950Z,7.48
2018-12-20T01:41:13.921Z,7.47
2018-12-20T01:42:13.982Z,7.48
2018-12-20T01:43:13.998Z,7.45
2018-12-20T01:44:14.021Z,7.48
2018-12-20T01:45:14.031Z,7.47
2018-12-20T01:46:14.233Z,7.54
2018-12-20T01:47:14.072Z,7.47
2018-12-20T01:48:14.098Z,7.41
2018-12-20T01:49:14.116Z,7.37
2018-12-20T01:50:14.224Z,7.47
2018-12-20T01:51:14.243Z,7.41
2018-12-20T01:52:14.191Z,7.41
2018-12-20T01:53:14.317Z,7.45
2018-12-20T01:54:14.305Z,7.41
2018-12-20T01:55:14.273Z,7.45
2018-12-20T01:56:14.311Z,7.47
2018-12-20T01:57:14.298Z,7.45
2018-12-20T01:58:14.316Z,7.39
2018-12-20T01:59:14.488Z,7.40
2018-12-20T02:00:14.361Z,7.45
2018-12-20T02:01:14.560Z,7.44
2018-12-20T02:02:14.409Z,7.39
2018-12-20T02:03:14.444Z,7.41
2018-12-20T02:04:14.630Z,7.44
2018-12-20T02:05:14.540Z,7.40
2018-12-20T02:06:14.503Z,7.44
2018-12-20T02:07:14.526Z,7.47
2018-12-20T02:08:14.676Z,7.48
2018-12-20T02:09:14.744Z,7.47
2018-12-20T02:10:14.596Z,7.48
2018-12-20T02:11:14.729Z,7.48
2018-12-20T02:12:14.660Z,7.56
2018-12-20T02:13:14.716Z,7.56
2018-12-20T02:14:14.776Z,7.49
2018-12-20T02:15:14.713Z,7.55
2018-12-20T02:16:14.908Z,7.47
2018-12-20T02:17:14.886Z,7.52
2018-12-20T02:18:14.783Z,7.58
2018-12-20T02:19:14.804Z,7.58
2018-12-20T02:20:14.832Z,7.51
2018-12-20T02:21:14.905Z,7.59
2018-12-20T02:22:15.063Z,7.55
2018-12-20T02:23:14.927Z,7.61
2018-12-20T02:24:15.095Z,7.56
2018-12-20T02:25:14.943Z,7.58
2018-12-20T02:26:14.970Z,7.54
2018-12-20T02:27:15.000Z,7.52
2018-12-20T02:28:15.135Z,7.47
2018-12-20T02:29:15.043Z,7.48
2018-12-20T02:30:15.066Z,7.48
2018-12-20T02:31:15.119Z,7.44
2018-12-20T02:32:15.114Z,7.48
2018-12-20T02:33:15.134Z,7.49
2018-12-20T02:34:15.213Z,7.56
2018-12-20T02:35:15.194Z,7.44
2018-12-20T02:36:15.209Z,7.52
2018-12-20T02:37:15.228Z,7.36
2018-12-20T02:38:15.285Z,7.45
2018-12-20T02:39:15.384Z,7.45
2018-12-20T02:40:15.301Z,7.34
2018-12-20T02:41:15.318Z,7.47
2018-12-20T02:42:15.539Z,7.45
2018-12-20T02:43:15.396Z,7.51
2018-12-20T02:44:15.394Z,7.41
2018-12-20T02:45:15.639Z,7.39
2018-12-20T02:46:15.829Z,7.41
2018-12-20T02:47:15.479Z,7.40
2018-12-20T02:48:15.507Z,7.51
2018-12-20T02:49:15.509Z,7.41
2018-12-20T02:50:15.531Z,7.36
2018-12-20T02:51:15.559Z,7.45
2018-12-20T02:52:15.576Z,7.49
2018-12-20T02:53:15.624Z,7.41
2018-12-20T02:54:15.843Z,7.41
2018-12-20T02:55:15.962Z,7.45
2018-12-20T02:56:15.670Z,7.44
2018-12-20T02:57:15.814Z,7.48
2018-12-20T02:58:15.791Z,7.47
2018-12-20T02:59:15.741Z,7.33
2018-12-20T03:00:15.925Z,7.41
2018-12-20T03:01:15.788Z,7.44
2018-12-20T03:02:16.101Z,7.33
2018-12-20T03:03:16.134Z,7.41
2018-12-20T03:04:15.857Z,7.40
2018-12-20T03:05:15.882Z,7.44
2018-12-20T03:06:15.972Z,7.31
2018-12-20T03:07:16.075Z,7.39
2018-12-20T03:08:16.112Z,7.44
2018-12-20T03:09:15.975Z,7.34
2018-12-20T03:10:15.996Z,7.45
2018-12-20T03:11:16.182Z,7.48
2018-12-20T03:12:16.172Z,7.30
2018-12-20T03:13:16.166Z,7.45
2018-12-20T03:14:16.118Z,7.41
2018-12-20T03:15:20.091Z,7.41
2018-12-20T03:16:16.400Z,7.40
2018-12-20T03:17:16.405Z,7.33
2018-12-20T03:18:16.232Z,7.48
2018-12-20T03:19:16.257Z,7.45
2018-12-20T03:20:16.230Z,7.51
2018-12-20T03:21:16.307Z,7.48
2018-12-20T03:22:16.315Z,7.44
2018-12-20T03:23:16.307Z,7.41
2018-12-20T03:24:16.560Z,7.51
2018-12-20T03:25:16.348Z,7.55
2018-12-20T03:26:16.487Z,7.47
2018-12-20T03:27:16.396Z,7.49
2018-12-20T03:28:16.448Z,7.56
2018-12-20T03:29:16.546Z,7.48
2018-12-20T03:30:16.586Z,7.52
2018-12-20T03:31:16.560Z,7.40
2018-12-20T03:32:16.512Z,7.48
2018-12-20T03:33:16.836Z,7.34
2018-12-20T03:34:16.575Z,7.48
2018-12-20T03:35:16.597Z,7.49
2018-12-20T03:36:16.991Z,7.51
2018-12-20T03:37:16.631Z,7.41
2018-12-20T03:38:16.811Z,7.45
2018-12-20T03:39:16.917Z,7.48
2018-12-20T03:40:16.810Z,7.47
2018-12-20T03:41:16.815Z,7.45
2018-12-20T03:42:16.747Z,7.40
2018-12-20T03:43:16.770Z,7.45
2018-12-20T03:44:16.801Z,7.44
2018-12-20T03:45:17.079Z,7.41
2018-12-20T03:46:16.837Z,7.49
2018-12-20T03:47:16.862Z,7.47
2018-12-20T03:48:16.904Z,7.45
2018-12-20T03:49:17.152Z,7.47
2018-12-20T03:50:16.930Z,7.45
2018-12-20T03:51:17.158Z,7.49
2018-12-20T03:52:17.065Z,7.45
2018-12-20T03:53:17.093Z,7.48
2018-12-20T03:54:17.354Z,7.54
2018-12-20T03:55:17.049Z,7.58
2018-12-20T03:56:17.224Z,7.52
2018-12-20T03:57:17.095Z,7.59
2018-12-20T03:58:17.118Z,7.55
2018-12-20T03:59:17.143Z,7.56
2018-12-20T04:00:17.273Z,7.56
2018-12-20T04:01:17.187Z,7.63
2018-12-20T04:02:17.369Z,7.63
2018-12-20T04:03:17.352Z,7.67
2018-12-20T04:04:17.295Z,7.73
2018-12-20T04:05:17.304Z,7.70
2018-12-20T04:06:17.352Z,7.63
2018-12-20T04:07:17.665Z,7.63
2018-12-20T04:08:17.490Z,7.70
2018-12-20T04:09:17.381Z,7.75
2018-12-20T04:10:17.476Z,7.74
2018-12-20T04:11:17.577Z,7.75
2018-12-20T04:12:17.535Z,7.80
2018-12-20T04:13:17.589Z,7.74
2018-12-20T04:14:17.501Z,7.77
2018-12-20T04:15:17.587Z,7.83
2018-12-20T04:16:17.560Z,7.77
2018-12-20T04:17:17.577Z,7.75
2018-12-20T04:18:17.594Z,7.74
2018-12-20T04:19:17.743Z,7.82
2018-12-20T04:20:17.929Z,7.78
2018-12-20T04:21:17.670Z,7.83
2018-12-20T04:22:17.902Z,7.77
2018-12-20T04:23:17.708Z,7.75
2018-12-20T04:24:17.822Z,7.75
2018-12-20T04:25:17.753Z,7.82
2018-12-20T04:26:17.899Z,7.89
2018-12-20T04:27:17.799Z,7.85
2018-12-20T04:28:17.825Z,7.88
2018-12-20T04:29:18.058Z,7.85
2018-12-20T04:30:17.978Z,7.91
2018-12-20T04:31:17.921Z,7.83
2018-12-20T04:32:17.919Z,7.77
2018-12-20T04:33:18.017Z,7.78
2018-12-20T04:34:17.967Z,7.86
2018-12-20T04:35:17.989Z,7.77
2018-12-20T04:36:18.018Z,7.82
2018-12-20T04:37:18.039Z,7.86
2018-12-20T04:38:18.254Z,7.83
2018-12-20T04:39:18.348Z,7.86
2018-12-20T04:40:18.257Z,7.92
2018-12-20T04:41:18.336Z,7.80
2018-12-20T04:42:18.155Z,7.92
2018-12-20T04:43:18.184Z,7.82
2018-12-20T04:44:18.278Z,7.83
2018-12-20T04:45:18.289Z,7.86
2018-12-20T04:46:18.419Z,7.86
2018-12-20T04:47:18.273Z,7.86
2018-12-20T04:48:18.398Z,7.86
2018-12-20T04:49:18.445Z,7.96
2018-12-20T04:50:18.534Z,7.78
2018-12-20T04:51:18.395Z,7.88
2018-12-20T04:52:18.395Z,7.99
2018-12-20T04:53:18.413Z,7.95
2018-12-20T04:54:18.704Z,7.98
2018-12-20T04:55:18.464Z,8.04
2018-12-20T04:56:18.647Z,7.93
2018-12-20T04:57:18.508Z,7.99
2018-12-20T04:58:18.534Z,7.98
2018-12-20T04:59:18.593Z,8.01
2018-12-20T05:00:18.782Z,8.07
2018-12-20T05:01:18.651Z,8.01
2018-12-20T05:02:18.864Z,8.01
2018-12-20T05:03:18.735Z,7.99
2018-12-20T05:04:19.009Z,8.06
2018-12-20T05:05:18.705Z,7.99
2018-12-20T05:06:18.724Z,8.01
2018-12-20T05:07:18.775Z,8.14
2018-12-20T05:08:18.849Z,8.13
2018-12-20T05:09:18.815Z,8.16
2018-12-20T05:10:18.880Z,8.13
2018-12-20T05:11:18.933Z,8.16
2018-12-20T05:12:18.879Z,8.17
2018-12-20T05:13:18.951Z,8.19
2018-12-20T05:14:19.095Z,8.11
2018-12-20T05:15:18.959Z,8.16
2018-12-20T05:16:19.068Z,8.22
2018-12-20T05:17:19.238Z,8.16
2018-12-20T05:18:19.009Z,8.28
2018-12-20T05:19:19.123Z,8.21
2018-12-20T05:20:19.058Z,8.26
2018-12-20T05:21:19.116Z,8.13
2018-12-20T05:22:19.105Z,8.28
2018-12-20T05:23:19.347Z,8.28
2018-12-20T05:24:19.219Z,8.28
2018-12-20T05:25:19.192Z,8.24
2018-12-20T05:26:19.221Z,8.22
2018-12-20T05:27:19.423Z,8.25
2018-12-20T05:28:19.252Z,8.29
2018-12-20T05:29:19.273Z,8.29
2018-12-20T05:30:19.357Z,8.25
2018-12-20T05:31:19.456Z,8.34
2018-12-20T05:32:19.509Z,8.39
2018-12-20T05:33:19.529Z,8.34
2018-12-20T05:34:19.594Z,8.34
2018-12-20T05:35:19.549Z,8.34
2018-12-20T05:36:19.623Z,8.31
2018-12-20T05:37:19.510Z,8.40
2018-12-20T05:38:19.634Z,8.39
2018-12-20T05:39:19.558Z,8.36
2018-12-20T05:40:19.858Z,8.35
2018-12-20T05:41:19.557Z,8.34
2018-12-20T05:42:19.742Z,8.35
2018-12-20T05:43:19.608Z,8.36
2018-12-20T05:44:19.874Z,8.36
2018-12-20T05:45:19.878Z,8.35
2018-12-20T05:46:19.680Z,8.40
2018-12-20T05:47:19.718Z,8.39
2018-12-20T05:48:19.730Z,8.49
2018-12-20T05:49:19.750Z,8.43
2018-12-20T05:50:19.773Z,8.43
2018-12-20T05:51:19.830Z,8.49
2018-12-20T05:52:19.968Z,8.42
2018-12-20T05:53:19.971Z,8.49
2018-12-20T05:54:20.018Z,8.44
2018-12-20T05:55:20.011Z,8.47
2018-12-20T05:56:19.969Z,8.52
2018-12-20T05:57:19.938Z,8.50
2018-12-20T05:58:19.965Z,8.53
2018-12-20T05:59:20.005Z,8.50
2018-12-20T06:00:20.091Z,8.53
2018-12-20T06:01:20.036Z,8.50
2018-12-20T06:02:20.292Z,8.50
2018-12-20T06:03:20.227Z,8.54
2018-12-20T06:04:20.106Z,8.47
2018-12-20T06:05:20.221Z,8.44
2018-12-20T06:06:20.463Z,8.50
2018-12-20T06:07:20.180Z,8.50
2018-12-20T06:08:20.500Z,8.47
2018-12-20T06:09:20.279Z,8.47
2018-12-20T06:10:20.301Z,8.50
2018-12-20T06:11:20.282Z,8.60
2018-12-20T06:12:20.500Z,8.58
2018-12-20T06:13:20.513Z,8.61
2018-12-20T06:14:20.679Z,8.67
2018-12-20T06:15:20.369Z,8.58
2018-12-20T06:16:20.588Z,8.60
2018-12-20T06:17:20.504Z,8.61
2018-12-20T06:18:20.478Z,8.60
2018-12-20T06:19:20.496Z,8.64
2018-12-20T06:20:20.714Z,8.61
2018-12-20T06:21:20.611Z,8.60
2018-12-20T06:22:20.731Z,8.62
2018-12-20T06:23:20.562Z,8.61
2018-12-20T06:24:20.587Z,8.69
2018-12-20T06:25:21.400Z,8.68
2018-12-20T06:26:20.636Z,8.64
2018-12-20T06:27:20.659Z,8.72
2018-12-20T06:28:20.681Z,8.67
2018-12-20T06:29:20.704Z,8.69
2018-12-20T06:30:20.729Z,8.71
2018-12-20T06:31:20.754Z,8.65
2018-12-20T06:32:20.781Z,8.69
2018-12-20T06:33:20.801Z,8.58
2018-12-20T06:34:20.825Z,8.58
2018-12-20T06:35:20.848Z,8.74
2018-12-20T06:36:20.875Z,8.74
2018-12-20T06:37:20.898Z,8.67
2018-12-20T06:38:20.922Z,8.54
2018-12-20T06:39:20.944Z,8.65
2018-12-20T06:40:20.971Z,8.67
2018-12-20T06:41:20.994Z,8.60
2018-12-20T06:42:21.016Z,8.64
2018-12-20T06:43:21.042Z,8.62
2018-12-20T06:44:21.064Z,8.62
2018-12-20T06:45:21.090Z,8.52
2018-12-20T06:46:21.596Z,8.61
2018-12-20T06:47:21.138Z,8.49
2018-12-20T06:48:21.162Z,8.58
2018-12-20T06:49:21.182Z,8.49
2018-12-20T06:50:21.209Z,8.49
2018-12-20T06:51:21.234Z,8.61
2018-12-20T06:52:21.258Z,8.53
2018-12-20T06:53:21.281Z,8.58
2018-12-20T06:54:21.303Z,8.47
2018-12-20T06:55:21.329Z,8.58
2018-12-20T06:56:21.353Z,8.53
2018-12-20T06:57:21.376Z,8.44
2018-12-20T06:58:21.399Z,8.61
2018-12-20T06:59:21.423Z,8.50
2018-12-20T07:00:21.449Z,8.53
2018-12-20T07:01:21.471Z,8.52
2018-12-20T07:02:21.494Z,8.60
2018-12-20T07:03:21.522Z,8.60
2018-12-20T07:04:21.542Z,8.60
2018-12-20T07:05:21.568Z,8.58
2018-12-20T07:06:21.593Z,8.57
2018-12-20T07:07:21.617Z,8.60
2018-12-20T07:08:21.642Z,8.47
2018-12-20T07:09:21.662Z,8.47
2018-12-20T07:10:21.689Z,8.58
2018-12-20T07:11:21.714Z,8.47
2018-12-20T07:12:21.735Z,8.57
2018-12-20T07:13:21.761Z,8.58
2018-12-20T07:14:21.785Z,8.62
2018-12-20T07:15:21.808Z,8.72
2018-12-20T07:16:29.105Z,8.68
2018-12-20T07:17:21.853Z,8.71
2018-12-20T07:18:21.883Z,8.72
2018-12-20T07:19:21.902Z,8.74
2018-12-20T07:20:21.929Z,8.69
2018-12-20T07:21:21.954Z,8.60
2018-12-20T07:22:21.975Z,8.68
2018-12-20T07:23:22.001Z,8.67
2018-12-20T07:24:22.139Z,8.68
2018-12-20T07:25:22.046Z,8.60
2018-12-20T07:26:22.071Z,8.67
2018-12-20T07:27:22.096Z,8.67
2018-12-20T07:28:22.122Z,8.64
2018-12-20T07:29:22.141Z,8.62
2018-12-20T07:30:22.167Z,8.58
2018-12-20T07:31:22.191Z,8.62
2018-12-20T07:32:25.232Z,8.67
2018-12-20T07:33:22.243Z,8.60
2018-12-20T07:34:22.270Z,8.65
2018-12-20T07:35:22.287Z,8.64
2018-12-20T07:36:22.316Z,8.65
2018-12-20T07:37:24.251Z,8.68
2018-12-20T07:38:22.358Z,8.67
2018-12-20T07:39:22.386Z,8.68
2018-12-20T07:40:22.407Z,8.69
2018-12-20T07:41:22.433Z,8.72
2018-12-20T07:42:22.456Z,8.65
2018-12-20T07:43:22.479Z,8.67
2018-12-20T07:44:22.505Z,8.62
2018-12-20T07:45:22.526Z,8.68
2018-12-20T07:46:22.551Z,8.69
2018-12-20T07:47:22.575Z,8.62
2018-12-20T07:48:22.603Z,8.62
2018-12-20T07:49:22.623Z,8.67
2018-12-20T07:50:22.649Z,8.61
2018-12-20T07:51:22.670Z,8.62
2018-12-20T07:52:22.694Z,8.60
2018-12-20T07:53:22.719Z,8.64
2018-12-20T07:54:22.745Z,8.61
2018-12-20T07:55:22.768Z,8.67
2018-12-20T07:56:22.790Z,8.62
2018-12-20T07:57:24.829Z,8.58
2018-12-20T07:58:22.838Z,8.68
2018-12-20T07:59:23.607Z,8.71
2018-12-20T08:00:22.888Z,8.60
2018-12-20T08:01:22.908Z,8.62
2018-12-20T08:02:22.935Z,8.60
2018-12-20T08:03:22.960Z,8.57
2018-12-20T08:04:22.984Z,8.72
2018-12-20T08:05:23.007Z,8.65
2018-12-20T08:06:23.029Z,8.67
2018-12-20T08:07:23.053Z,8.72
2018-12-20T08:08:23.077Z,8.71
2018-12-20T08:09:23.100Z,8.71
2018-12-20T08:10:23.127Z,8.64
2018-12-20T08:11:23.151Z,8.65
2018-12-20T08:12:23.176Z,8.71
2018-12-20T08:13:23.196Z,8.69
2018-12-20T08:14:23.220Z,8.74
2018-12-20T08:15:23.246Z,8.69
2018-12-20T08:16:23.270Z,8.62
2018-12-20T08:17:23.294Z,8.67
2018-12-20T08:18:23.374Z,8.65
2018-12-20T08:19:23.340Z,8.54
2018-12-20T08:20:23.366Z,8.58
2018-12-20T08:21:23.389Z,8.65
2018-12-20T08:22:23.411Z,8.68
2018-12-20T08:23:23.438Z,8.80
2018-12-20T08:24:23.459Z,8.71
2018-12-20T08:25:23.483Z,8.69
2018-12-20T08:26:23.509Z,8.69
2018-12-20T08:27:23.536Z,8.69
2018-12-20T08:28:23.556Z,8.69
2018-12-20T08:29:23.579Z,8.69
2018-12-20T08:30:23.607Z,8.69
2018-12-20T08:31:23.628Z,8.72
2018-12-20T08:32:23.654Z,8.74
2018-12-20T08:33:23.678Z,8.69
2018-12-20T08:34:23.699Z,8.65
2018-12-20T08:35:23.723Z,8.74
2018-12-20T08:36:23.750Z,8.76
2018-12-20T08:37:23.771Z,8.79
2018-12-20T08:38:23.801Z,8.79
2018-12-20T08:39:23.822Z,8.80
2018-12-20T08:40:23.846Z,8.76
2018-12-20T08:41:23.869Z,8.74
2018-12-20T08:42:23.897Z,8.82
2018-12-20T08:43:23.919Z,8.79
2018-12-20T08:44:23.941Z,8.79
2018-12-20T08:45:23.968Z,8.85
2018-12-20T08:46:23.987Z,8.80
2018-12-20T08:47:24.013Z,8.83
2018-12-20T08:48:24.038Z,8.85
2018-12-20T08:49:24.061Z,8.80
2018-12-20T08:50:24.083Z,8.79
2018-12-20T08:51:24.112Z,8.85
2018-12-20T08:52:24.135Z,8.82
2018-12-20T08:53:24.157Z,8.82
2018-12-20T08:54:24.182Z,8.83
2018-12-20T08:55:24.204Z,8.89
2018-12-20T08:56:24.269Z,8.89
2018-12-20T08:57:24.253Z,8.87
2018-12-20T08:58:24.276Z,8.87
2018-12-20T08:59:24.302Z,8.80
2018-12-20T09:00:24.327Z,8.85
2018-12-20T09:01:24.348Z,8.79
2018-12-20T09:02:24.374Z,8.82
2018-12-20T09:03:24.398Z,8.79
2018-12-20T09:04:24.421Z,8.74
2018-12-20T09:05:24.444Z,8.82
2018-12-20T09:06:24.469Z,8.79
2018-12-20T09:07:24.493Z,8.79
2018-12-20T09:08:25.501Z,8.79
2018-12-20T09:09:24.543Z,8.76
2018-12-20T09:10:24.568Z,8.76
2018-12-20T09:11:24.591Z,8.82
2018-12-20T09:12:24.616Z,8.83
2018-12-20T09:13:24.637Z,8.82
2018-12-20T09:14:24.661Z,8.83
2018-12-20T09:15:24.688Z,8.79
2018-12-20T09:16:24.712Z,8.80
2018-12-20T09:17:24.733Z,8.94
2018-12-20T09:18:24.761Z,8.94
2018-12-20T09:19:24.782Z,8.97
2018-12-20T09:20:32.535Z,8.95
2018-12-20T09:21:24.832Z,8.92
2018-12-20T09:22:24.856Z,8.89
2018-12-20T09:23:24.881Z,9.00
2018-12-20T09:24:24.904Z,8.94
2018-12-20T09:25:24.932Z,8.98
2018-12-20T09:26:24.953Z,8.94
2018-12-20T09:27:24.977Z,8.90
2018-12-20T09:28:25.004Z,8.95
2018-12-20T09:29:25.027Z,9.08
2018-12-20T09:30:30.449Z,9.03
2018-12-20T09:31:25.072Z,9.05
2018-12-20T09:32:25.097Z,9.00
2018-12-20T09:33:25.124Z,9.11
2018-12-20T09:34:25.149Z,9.12
2018-12-20T09:35:25.169Z,9.17
2018-12-20T09:36:25.194Z,9.12
2018-12-20T09:37:25.219Z,9.11
2018-12-20T09:38:25.243Z,9.16
2018-12-20T09:39:25.274Z,9.29
2018-12-20T09:40:25.290Z,9.23
2018-12-20T09:41:25.314Z,9.35
2018-12-20T09:42:25.341Z,9.34
2018-12-20T09:43:25.364Z,9.30
2018-12-20T09:44:25.391Z,9.35
2018-12-20T09:45:25.414Z,9.35
2018-12-20T09:46:25.439Z,9.42
2018-12-20T09:47:25.463Z,9.39
2018-12-20T09:48:25.486Z,9.44
2018-12-20T09:49:25.542Z,9.42
2018-12-20T09:50:25.537Z,9.41
2018-12-20T09:51:25.561Z,9.47
2018-12-20T09:52:25.584Z,9.52
2018-12-20T09:53:25.610Z,9.52
2018-12-20T09:54:25.634Z,9.53
2018-12-20T09:55:25.659Z,9.53
2018-12-20T09:56:25.682Z,9.50
2018-12-20T09:57:25.710Z,9.52
2018-12-20T09:58:25.733Z,9.50
2018-12-20T09:59:25.758Z,9.55
2018-12-20T10:00:25.782Z,9.55
2018-12-20T10:01:25.804Z,9.64
2018-12-20T10:02:25.830Z,9.62
2018-12-20T10:03:25.857Z,9.74
2018-12-20T10:04:25.881Z,9.66
2018-12-20T10:05:25.904Z,9.93
2018-12-20T10:06:25.929Z,9.95
2018-12-20T10:07:25.976Z,9.99
2018-12-20T10:08:25.978Z,10.10
2018-12-20T10:09:26.000Z,10.21
2018-12-20T10:10:26.023Z,10.26
2018-12-20T10:11:26.053Z,10.18
2018-12-20T10:12:26.075Z,10.14
2018-12-20T10:13:26.099Z,10.28
2018-12-20T10:14:26.129Z,10.13
2018-12-20T10:15:26.150Z,10.25
2018-12-20T10:16:26.173Z,10.05
2018-12-20T10:17:26.197Z,10.00
2018-12-20T10:18:26.222Z,10.05
2018-12-20T10:19:26.276Z,9.99
2018-12-20T10:20:26.272Z,9.90
2018-12-20T10:21:26.298Z,9.88
2018-12-20T10:22:26.323Z,9.85
2018-12-20T10:23:26.348Z,9.92
2018-12-20T10:24:26.372Z,10.08
2018-12-20T10:25:26.399Z,10.07
2018-12-20T10:26:26.422Z,10.11
2018-12-20T10:27:31.351Z,10.15
2018-12-20T10:28:26.471Z,10.20
2018-12-20T10:29:26.494Z,10.20
2018-12-20T10:30:26.521Z,10.28
2018-12-20T10:31:26.547Z,10.36
2018-12-20T10:32:26.571Z,10.25
2018-12-20T10:33:26.593Z,10.33
2018-12-20T10:34:26.620Z,10.29
2018-12-20T10:35:26.647Z,10.28
2018-12-20T10:36:26.673Z,10.20
2018-12-20T10:37:26.696Z,10.31
2018-12-20T10:38:26.723Z,10.32
2018-12-20T10:39:26.750Z,10.35
2018-12-20T10:40:26.772Z,10.35
2018-12-20T10:41:26.797Z,10.38
2018-12-20T10:42:26.820Z,10.35
2018-12-20T10:43:26.848Z,10.36
2018-12-20T10:44:26.870Z,10.25
2018-12-20T10:45:26.897Z,10.21
2018-12-20T10:46:26.921Z,10.20
2018-12-20T10:47:29.151Z,10.11
2018-12-20T10:48:26.972Z,9.95
2018-12-20T10:49:26.997Z,9.93
2018-12-20T10:50:27.024Z,9.93
2018-12-20T10:51:27.050Z,9.92
2018-12-20T10:52:27.078Z,9.89
2018-12-20T10:53:27.098Z,9.92
2018-12-20T10:54:27.123Z,9.90
2018-12-20T10:55:27.149Z,9.89
2018-12-20T10:56:27.176Z,9.99
2018-12-20T10:57:27.199Z,9.93
2018-12-20T10:58:27.226Z,9.92
2018-12-20T10:59:27.250Z,9.96
2018-12-20T11:00:27.274Z,9.95
2018-12-20T11:01:27.304Z,9.88
2018-12-20T11:02:27.325Z,9.84
2018-12-20T11:03:27.350Z,9.89
2018-12-20T11:04:27.377Z,9.78
2018-12-20T11:05:27.401Z,9.89
2018-12-20T11:06:27.426Z,9.80
2018-12-20T11:07:27.449Z,9.72
2018-12-20T11:08:27.476Z,9.75
2018-12-20T11:09:27.497Z,9.82
2018-12-20T11:10:27.524Z,9.82
2018-12-20T11:11:27.552Z,9.84
2018-12-20T11:12:27.572Z,9.84
2018-12-20T11:13:27.602Z,9.78
2018-12-20T11:14:27.621Z,9.74
2018-12-20T11:15:27.646Z,9.81
2018-12-20T11:16:27.671Z,9.80
2018-12-20T11:17:27.696Z,9.78
2018-12-20T11:18:27.722Z,9.72
2018-12-20T11:19:27.747Z,9.81
2018-12-20T11:20:27.776Z,9.82
2018-12-20T11:21:27.796Z,9.89
2018-12-20T11:22:27.822Z,9.93
2018-12-20T11:23:27.848Z,9.99
2018-12-20T11:24:27.872Z,9.89
2018-12-20T11:25:27.893Z,9.96
2018-12-20T11:26:27.920Z,9.89
2018-12-20T11:27:27.944Z,9.99
2018-12-20T11:28:27.968Z,10.00
2018-12-20T11:29:27.994Z,9.93
2018-12-20T11:30:28.017Z,9.99
2018-12-20T11:31:28.046Z,9.90
2018-12-20T11:32:28.069Z,9.90
2018-12-20T11:33:28.094Z,9.89
2018-12-20T11:34:28.116Z,9.85
2018-12-20T11:35:28.143Z,9.85
2018-12-20T11:36:28.170Z,9.82
2018-12-20T11:37:28.193Z,9.88
2018-12-20T11:38:28.218Z,9.89
2018-12-20T11:39:28.241Z,9.85
2018-12-20T11:40:28.266Z,9.82
2018-12-20T11:41:28.293Z,9.82
2018-12-20T11:42:28.318Z,9.88
2018-12-20T11:43:28.340Z,9.82
2018-12-20T11:44:28.368Z,9.92
2018-12-20T11:45:28.389Z,9.81
2018-12-20T11:46:28.418Z,9.84
2018-12-20T11:47:28.442Z,9.84
2018-12-20T11:48:28.467Z,9.77
2018-12-20T11:49:28.491Z,9.89
2018-12-20T11:50:28.515Z,9.82
2018-12-20T11:51:28.539Z,9.89
2018-12-20T11:52:28.563Z,9.95
2018-12-20T11:53:28.587Z,9.95
2018-12-20T11:54:28.613Z,9.95
2018-12-20T11:55:28.640Z,10.05
2018-12-20T11:56:28.666Z,9.98
2018-12-20T11:57:28.686Z,9.89
2018-12-20T11:58:28.712Z,9.93
2018-12-20T11:59:28.738Z,9.85
2018-12-20T12:00:28.762Z,9.93
2018-12-20T12:01:28.787Z,9.95
2018-12-20T12:02:28.810Z,9.93
2018-12-20T12:03:28.835Z,10.05
2018-12-20T12:04:28.862Z,10.02
2018-12-20T12:05:28.887Z,10.23
2018-12-20T12:06:28.911Z,10.15
2018-12-20T12:07:28.934Z,10.10
2018-12-20T12:08:28.965Z,9.99
2018-12-20T12:09:28.985Z,9.93
2018-12-20T12:10:29.011Z,9.85
2018-12-20T12:11:29.037Z,9.82
2018-12-20T12:12:29.061Z,9.88
2018-12-20T12:13:29.085Z,9.90
2018-12-20T12:14:29.110Z,9.90
2018-12-20T12:15:29.133Z,9.84
2018-12-20T12:16:29.159Z,9.84
2018-12-20T12:17:29.181Z,9.85
2018-12-20T12:18:29.207Z,9.88
2018-12-20T12:19:29.232Z,9.81
2018-12-20T12:20:29.258Z,9.85
2018-12-20T12:21:29.280Z,9.88
2018-12-20T12:22:29.309Z,9.82
2018-12-20T12:23:29.330Z,9.84
2018-12-20T12:24:29.355Z,9.78
2018-12-20T12:25:29.380Z,9.84
2018-12-20T12:26:29.406Z,9.85
2018-12-20T12:27:29.433Z,9.89
2018-12-20T12:28:30.826Z,9.84
2018-12-20T12:29:29.479Z,9.84
2018-12-20T12:30:29.508Z,9.84
2018-12-20T12:31:29.547Z,9.95
2018-12-20T12:32:29.556Z,9.99
2018-12-20T12:33:29.580Z,9.89
2018-12-20T12:34:29.604Z,9.98
2018-12-20T12:35:29.630Z,9.98
2018-12-20T12:36:29.654Z,9.95
2018-12-20T12:37:29.678Z,9.95
2018-12-20T12:38:29.702Z,9.89
2018-12-20T12:39:29.726Z,9.92
2018-12-20T12:40:29.753Z,9.92
2018-12-20T12:41:29.777Z,9.98
2018-12-20T12:42:29.802Z,9.99
2018-12-20T12:43:29.828Z,9.96
2018-12-20T12:44:29.849Z,10.07
2018-12-20T12:45:29.875Z,10.11
2018-12-20T12:46:29.901Z,10.07
2018-12-20T12:47:29.923Z,10.13
2018-12-20T12:48:29.948Z,10.18
2018-12-20T12:49:29.974Z,10.11
2018-12-20T12:50:29.997Z,10.14
2018-12-20T12:51:30.024Z,10.14
2018-12-20T12:52:30.050Z,10.02
2018-12-20T12:53:30.074Z,9.95
2018-12-20T12:54:30.099Z,10.00
2018-12-20T12:55:30.122Z,10.02
2018-12-20T12:56:30.155Z,10.11
2018-12-20T12:57:30.173Z,10.05
2018-12-20T12:58:30.195Z,10.07
2018-12-20T12:59:30.220Z,9.96
2018-12-20T13:00:30.245Z,9.93
2018-12-20T13:01:30.271Z,10.02
2018-12-20T13:02:30.295Z,9.93
2018-12-20T13:03:30.319Z,9.95
2018-12-20T13:04:30.345Z,9.92
2018-12-20T13:05:30.370Z,9.96
2018-12-20T13:06:30.393Z,9.98
2018-12-20T13:07:30.420Z,9.92
2018-12-20T13:08:30.446Z,9.93
2018-12-20T13:09:30.477Z,9.90
2018-12-20T13:10:30.495Z,9.89
2018-12-20T13:11:30.520Z,9.92
2018-12-20T13:12:30.546Z,9.85
2018-12-20T13:13:30.567Z,9.95
2018-12-20T13:14:30.593Z,9.92
2018-12-20T13:15:30.618Z,9.98
2018-12-20T13:16:30.644Z,9.92